Time;durP1;ratioP1;P1;durP2;ratioP2;P2;SDS_P1;SDS_P2;PMS_P1;PMS_P2;Temp;Humidity;BMP_temperature;BMP_pressure;BME280_temperature;BME280_humidity;BME280_pressure;Samples;Min_cycle;Max_cycle;Signal;HPM_P1;HPM_P2
2024/02/15 00:00:03;;;;;;;7.07;3.60;;;;;;;;;;2058713;28;20469;-49
2024/02/15 00:01:05;;;;;;;8.90;3.80;;;;;;;;;;2057989;28;20095;-49
2024/02/15 00:02:06;;;;;;;6.32;3.42;;;;;;;;;;2057035;28;20039;-49
2024/02/15 00:03:07;;;;;;;6.97;3.70;;;;;;;;;;2056120;28;20094;-50
2024/02/15 00:04:10;;;;;;;5.70;3.70;;;;;;;;;;2055668;28;20026;-49
2024/02/15 00:05:14;;;;;;;6.28;3.45;;;;;;;;;;2056507;28;20023;-49
2024/02/15 00:06:17;;;;;;;6.18;3.85;;;;;;;;;;2056290;28;20105;-49
2024/02/15 00:07:22;;;;;;;10.68;3.80;;;;;;;;;;2060500;28;20386;-48
2024/02/15 00:08:24;;;;;;;6.35;3.92;;;;;;;;;;2060411;28;20010;-47
2024/02/15 00:09:26;;;;;;;5.53;3.22;;;;;;;;;;2057166;28;20038;-50
2024/02/15 00:10:27;;;;;;;7.35;3.60;;;;;;;;;;2060322;28;20382;-49
2024/02/15 00:11:28;;;;;;;7.40;4.00;;;;;;;;;;2057306;28;20026;-49
2024/02/15 00:12:32;;;;;;;6.20;4.05;;;;;;;;;;2057010;28;20521;-48
2024/02/15 00:13:34;;;;;;;7.32;3.72;;;;;;;;;;2058898;28;20022;-47
2024/02/15 00:14:38;;;;;;;10.82;4.43;;;;;;;;;;2054132;28;20016;-48
2024/02/15 00:15:39;;;;;;;5.22;3.28;;;;;;;;;;2057361;28;20025;-50
2024/02/15 00:16:40;;;;;;;8.05;3.88;;;;;;;;;;2057232;28;20027;-49
2024/02/15 00:17:41;;;;;;;7.60;3.65;;;;;;;;;;2060919;28;20089;-49
2024/02/15 00:18:43;;;;;;;6.85;3.83;;;;;;;;;;2060869;28;20022;-48
2024/02/15 00:19:44;;;;;;;9.98;4.00;;;;;;;;;;2057159;28;20023;-49
2024/02/15 00:20:45;;;;;;;6.60;3.65;;;;;;;;;;2056799;28;20442;-48
2024/02/15 00:21:47;;;;;;;8.13;4.57;;;;;;;;;;2060735;28;20030;-49
2024/02/15 00:22:49;;;;;;;6.72;4.00;;;;;;;;;;2053788;28;20472;-47
2024/02/15 00:23:50;;;;;;;6.07;3.70;;;;;;;;;;2057802;28;20037;-49
2024/02/15 00:24:51;;;;;;;7.70;4.13;;;;;;;;;;2057157;28;20517;-49
2024/02/15 00:25:53;;;;;;;6.28;3.95;;;;;;;;;;2057475;28;20477;-48
2024/02/15 00:26:54;;;;;;;8.23;3.83;;;;;;;;;;2053917;28;20494;-52
2024/02/15 00:27:56;;;;;;;7.43;4.10;;;;;;;;;;2059204;28;20081;-51
2024/02/15 00:28:58;;;;;;;7.22;3.72;;;;;;;;;;2058595;28;20049;-50
2024/02/15 00:30:00;;;;;;;6.63;3.65;;;;;;;;;;2055712;28;20574;-50
2024/02/15 00:31:01;;;;;;;7.30;3.85;;;;;;;;;;2060099;28;20022;-51
2024/02/15 00:32:06;;;;;;;9.38;4.30;;;;;;;;;;2062388;28;20472;-52
2024/02/15 00:33:07;;;;;;;8.15;4.40;;;;;;;;;;2059456;28;20115;-51
2024/02/15 00:34:09;;;;;;;8.73;3.78;;;;;;;;;;2060355;28;20037;-50
2024/02/15 00:35:10;;;;;;;8.38;4.30;;;;;;;;;;2060334;28;20023;-49
2024/02/15 00:36:12;;;;;;;8.60;4.35;;;;;;;;;;2057414;28;20030;-50
2024/02/15 00:37:13;;;;;;;10.23;4.03;;;;;;;;;;2060164;28;21409;-51
2024/02/15 00:38:14;;;;;;;8.60;4.30;;;;;;;;;;2063323;28;20113;-52
2024/02/15 00:39:18;;;;;;;7.95;4.22;;;;;;;;;;2056227;28;20097;-52
2024/02/15 00:40:20;;;;;;;8.38;5.00;;;;;;;;;;2057320;28;20083;-51
2024/02/15 00:41:21;;;;;;;7.65;4.13;;;;;;;;;;2052303;28;20073;-51
2024/02/15 00:42:22;;;;;;;8.02;4.18;;;;;;;;;;2049666;28;20040;-51
2024/02/15 00:43:24;;;;;;;8.15;4.43;;;;;;;;;;2052339;28;20029;-49
2024/02/15 00:44:25;;;;;;;10.32;4.65;;;;;;;;;;2063778;28;20027;-49
2024/02/15 00:45:26;;;;;;;10.45;5.00;;;;;;;;;;2058473;28;20504;-51
2024/02/15 00:46:29;;;;;;;8.60;4.70;;;;;;;;;;2058575;28;20473;-51
2024/02/15 00:47:30;;;;;;;9.43;5.28;;;;;;;;;;2061665;28;20117;-50
2024/02/15 00:48:32;;;;;;;9.30;4.85;;;;;;;;;;2057005;28;20123;-52
2024/02/15 00:49:33;;;;;;;6.53;4.15;;;;;;;;;;2062813;28;20109;-51
2024/02/15 00:50:34;;;;;;;8.00;4.50;;;;;;;;;;2058178;28;20050;-54
2024/02/15 00:51:36;;;;;;;6.57;3.97;;;;;;;;;;2058768;28;20026;-51
2024/02/15 00:52:37;;;;;;;6.15;3.22;;;;;;;;;;2050845;28;20046;-51
2024/02/15 00:53:39;;;;;;;5.72;3.20;;;;;;;;;;2043239;28;20058;-49
2024/02/15 00:54:40;;;;;;;7.13;4.22;;;;;;;;;;2057530;28;20447;-50
2024/02/15 00:55:41;;;;;;;5.20;3.58;;;;;;;;;;2057504;28;20169;-50
2024/02/15 00:56:42;;;;;;;6.13;3.20;;;;;;;;;;2059796;28;20015;-50
2024/02/15 00:57:44;;;;;;;4.88;3.40;;;;;;;;;;2060537;28;20014;-50
2024/02/15 00:58:45;;;;;;;5.72;3.42;;;;;;;;;;2058728;28;20037;-50
2024/02/15 00:59:46;;;;;;;5.90;3.70;;;;;;;;;;2059540;28;20073;-51
2024/02/15 01:00:48;;;;;;;7.47;3.65;;;;;;;;;;2062287;28;20023;-51
2024/02/15 01:01:49;;;;;;;6.20;3.00;;;;;;;;;;2061804;28;20027;-49
2024/02/15 01:02:51;;;;;;;6.72;3.35;;;;;;;;;;2061242;28;20034;-51
2024/02/15 01:03:52;;;;;;;4.90;3.03;;;;;;;;;;2061045;28;20014;-51
2024/02/15 01:04:55;;;;;;;5.05;3.10;;;;;;;;;;2057489;28;20067;-51
2024/02/15 01:05:56;;;;;;;5.13;2.95;;;;;;;;;;2056222;28;20103;-51
2024/02/15 01:06:57;;;;;;;4.85;3.45;;;;;;;;;;2058745;28;20077;-51
2024/02/15 01:08:00;;;;;;;5.25;3.08;;;;;;;;;;2057703;28;20523;-50
2024/02/15 01:09:03;;;;;;;5.07;3.20;;;;;;;;;;2058005;28;20496;-51
2024/02/15 01:10:06;;;;;;;6.93;3.85;;;;;;;;;;2059320;28;20035;-52
2024/02/15 01:11:07;;;;;;;6.22;3.03;;;;;;;;;;2059751;28;20030;-52
2024/02/15 01:12:10;;;;;;;4.38;3.28;;;;;;;;;;2058054;28;20075;-49
2024/02/15 01:13:12;;;;;;;6.97;3.22;;;;;;;;;;2056229;28;20027;-49
2024/02/15 01:14:13;;;;;;;6.32;3.95;;;;;;;;;;2064495;28;20054;-52
2024/02/15 01:15:18;;;;;;;4.78;3.38;;;;;;;;;;2056913;28;20023;-50
2024/02/15 01:16:19;;;;;;;5.43;3.10;;;;;;;;;;2057409;28;20023;-51
2024/02/15 01:17:20;;;;;;;6.30;3.42;;;;;;;;;;2061438;28;20342;-50
2024/02/15 01:18:22;;;;;;;5.20;3.35;;;;;;;;;;2056427;28;20023;-50
2024/02/15 01:19:23;;;;;;;5.13;3.40;;;;;;;;;;2058592;28;20384;-50
2024/02/15 01:20:24;;;;;;;4.93;3.15;;;;;;;;;;2058947;28;20027;-50
2024/02/15 01:21:25;;;;;;;4.15;2.97;;;;;;;;;;2057727;28;20015;-49
2024/02/15 01:22:27;;;;;;;4.97;2.90;;;;;;;;;;2054151;28;20022;-50
2024/02/15 01:23:28;;;;;;;4.88;3.10;;;;;;;;;;2057765;28;20125;-48
2024/02/15 01:24:30;;;;;;;5.05;2.90;;;;;;;;;;2060740;28;20097;-50
2024/02/15 01:25:31;;;;;;;6.30;3.40;;;;;;;;;;2056970;28;20117;-48
2024/02/15 01:26:33;;;;;;;5.60;2.85;;;;;;;;;;2057933;28;20022;-48
2024/02/15 01:27:34;;;;;;;4.97;3.28;;;;;;;;;;2060842;28;20493;-49
2024/02/15 01:28:35;;;;;;;4.82;3.25;;;;;;;;;;2058637;28;20351;-48
2024/02/15 01:29:37;;;;;;;4.97;3.05;;;;;;;;;;2058417;28;20039;-48
2024/02/15 01:30:38;;;;;;;4.45;3.17;;;;;;;;;;2056933;28;20044;-48
2024/02/15 01:31:39;;;;;;;5.05;3.03;;;;;;;;;;2061795;28;20092;-49
2024/02/15 01:32:42;;;;;;;4.82;3.08;;;;;;;;;;2057037;28;20044;-48
2024/02/15 01:33:45;;;;;;;7.72;3.30;;;;;;;;;;2058135;28;20066;-48
2024/02/15 01:34:46;;;;;;;5.85;2.95;;;;;;;;;;2056429;28;20102;-48
2024/02/15 01:35:48;;;;;;;6.20;3.25;;;;;;;;;;2059564;28;20023;-49
2024/02/15 01:36:50;;;;;;;7.18;3.35;;;;;;;;;;2057003;28;20723;-49
2024/02/15 01:37:52;;;;;;;4.43;3.13;;;;;;;;;;2057556;28;20089;-49
2024/02/15 01:38:53;;;;;;;5.20;2.97;;;;;;;;;;2058014;28;20023;-48
2024/02/15 01:39:54;;;;;;;4.68;3.03;;;;;;;;;;2059407;28;20023;-48
2024/02/15 01:40:55;;;;;;;5.60;3.70;;;;;;;;;;2058018;28;20026;-52
2024/02/15 01:41:57;;;;;;;5.75;3.60;;;;;;;;;;2058431;28;20031;-51
2024/02/15 01:43:01;;;;;;;6.47;3.08;;;;;;;;;;2058828;28;20384;-52
2024/02/15 01:44:02;;;;;;;4.72;3.17;;;;;;;;;;2055478;28;20343;-48
2024/02/15 01:45:04;;;;;;;6.65;3.47;;;;;;;;;;2057987;28;20454;-48
2024/02/15 01:46:08;;;;;;;4.80;3.53;;;;;;;;;;2056796;28;20038;-48
2024/02/15 01:47:11;;;;;;;6.85;3.30;;;;;;;;;;2056720;28;20015;-49
2024/02/15 01:48:12;;;;;;;5.82;3.67;;;;;;;;;;2060097;28;20027;-49
2024/02/15 01:49:15;;;;;;;5.43;3.45;;;;;;;;;;2064380;28;20088;-50
2024/02/15 01:50:17;;;;;;;4.38;3.20;;;;;;;;;;2064229;28;20019;-50
2024/02/15 01:51:19;;;;;;;6.88;3.42;;;;;;;;;;2057607;28;20015;-50
2024/02/15 01:52:20;;;;;;;5.28;3.65;;;;;;;;;;2058175;28;20029;-49
2024/02/15 01:53:21;;;;;;;6.78;3.38;;;;;;;;;;2058365;28;20030;-49
2024/02/15 01:54:24;;;;;;;5.68;3.22;;;;;;;;;;2062084;28;20034;-49
2024/02/15 01:55:25;;;;;;;4.72;3.38;;;;;;;;;;2062857;28;20034;-47
2024/02/15 01:56:27;;;;;;;5.30;3.33;;;;;;;;;;2058671;28;20061;-49
2024/02/15 01:57:29;;;;;;;4.97;2.83;;;;;;;;;;2060981;28;20023;-49
2024/02/15 01:58:31;;;;;;;4.10;3.22;;;;;;;;;;2059913;28;20041;-48
2024/02/15 01:59:33;;;;;;;4.55;3.40;;;;;;;;;;2057663;28;20027;-52
2024/02/15 02:00:39;;;;;;;5.22;3.25;;;;;;;;;;2058855;28;20027;-49
2024/02/15 02:01:41;;;;;;;6.90;3.50;;;;;;;;;;2059200;28;20030;-56
2024/02/15 02:02:43;;;;;;;4.75;3.08;;;;;;;;;;2058350;28;20501;-55
2024/02/15 02:03:44;;;;;;;4.25;2.88;;;;;;;;;;2045261;28;20034;-53
2024/02/15 02:04:46;;;;;;;4.45;3.00;;;;;;;;;;2048787;28;20070;-54
2024/02/15 02:05:47;;;;;;;6.22;3.50;;;;;;;;;;2058101;28;20019;-55
2024/02/15 02:06:49;;;;;;;5.05;3.20;;;;;;;;;;2058167;28;20430;-55
2024/02/15 02:07:50;;;;;;;5.10;3.25;;;;;;;;;;2046973;28;20056;-51
2024/02/15 02:08:51;;;;;;;5.18;2.90;;;;;;;;;;2055056;28;20031;-54
2024/02/15 02:09:53;;;;;;;4.70;2.97;;;;;;;;;;2057325;28;20110;-57
2024/02/15 02:10:54;;;;;;;5.93;2.90;;;;;;;;;;2058376;28;20031;-55
2024/02/15 02:11:55;;;;;;;6.55;3.35;;;;;;;;;;2058131;28;20034;-54
2024/02/15 02:12:57;;;;;;;4.95;3.30;;;;;;;;;;2060265;28;20026;-55
2024/02/15 02:13:58;;;;;;;5.63;2.78;;;;;;;;;;2058060;28;20073;-55
2024/02/15 02:14:59;;;;;;;3.97;2.97;;;;;;;;;;2057286;28;20397;-55
2024/02/15 02:16:00;;;;;;;4.13;3.05;;;;;;;;;;2056375;28;20033;-52
2024/02/15 02:17:12;;;;;;;6.82;2.90;;;;;;;;;;2059308;28;20019;-54
2024/02/15 02:18:13;;;;;;;5.28;3.10;;;;;;;;;;2055195;28;20050;-54
2024/02/15 02:19:17;;;;;;;5.00;3.00;;;;;;;;;;2055987;28;20445;-48
2024/02/15 02:20:19;;;;;;;3.95;2.85;;;;;;;;;;2058502;28;20027;-49
2024/02/15 02:21:20;;;;;;;5.28;2.83;;;;;;;;;;2058929;28;20457;-48
2024/02/15 02:22:21;;;;;;;6.22;3.00;;;;;;;;;;2061743;28;20093;-49
2024/02/15 02:23:26;;;;;;;6.25;3.70;;;;;;;;;;2058235;28;20038;-49
2024/02/15 02:24:28;;;;;;;5.32;3.10;;;;;;;;;;2059273;28;20060;-49
2024/02/15 02:25:29;;;;;;;4.95;3.15;;;;;;;;;;2063928;28;20147;-48
2024/02/15 02:26:31;;;;;;;6.45;3.00;;;;;;;;;;2058062;28;20034;-48
2024/02/15 02:27:36;;;;;;;3.80;2.60;;;;;;;;;;2059858;28;20081;-47
2024/02/15 02:28:37;;;;;;;5.85;3.75;;;;;;;;;;2059689;28;20030;-48
2024/02/15 02:29:45;;;;;;;4.30;2.83;;;;;;;;;;2061245;28;20028;-47
2024/02/15 02:30:46;;;;;;;5.88;2.72;;;;;;;;;;2056042;28;20022;-48
2024/02/15 02:31:48;;;;;;;4.85;3.20;;;;;;;;;;2060171;28;20042;-47
2024/02/15 02:32:50;;;;;;;5.13;2.97;;;;;;;;;;2056350;28;20039;-50
2024/02/15 02:33:52;;;;;;;6.38;3.25;;;;;;;;;;2057446;28;20477;-49
2024/02/15 02:34:57;;;;;;;7.07;3.40;;;;;;;;;;2060711;28;20030;-49
2024/02/15 02:35:58;;;;;;;4.60;3.10;;;;;;;;;;2056431;28;20034;-49
2024/02/15 02:37:01;;;;;;;5.95;2.85;;;;;;;;;;2059380;28;20035;-49
2024/02/15 02:38:03;;;;;;;4.65;2.95;;;;;;;;;;2055563;28;20062;-47
2024/02/15 02:39:04;;;;;;;4.18;2.55;;;;;;;;;;2057789;28;20026;-49
2024/02/15 02:40:09;;;;;;;3.80;2.72;;;;;;;;;;2057168;28;20118;-49
2024/02/15 02:41:10;;;;;;;5.45;2.90;;;;;;;;;;2058092;28;20081;-50
2024/02/15 02:42:11;;;;;;;5.28;2.72;;;;;;;;;;2059598;28;20072;-49
2024/02/15 02:43:12;;;;;;;6.13;2.78;;;;;;;;;;2058957;28;20073;-49
2024/02/15 02:44:14;;;;;;;7.32;2.90;;;;;;;;;;2052863;28;20023;-48
2024/02/15 02:45:15;;;;;;;6.18;3.10;;;;;;;;;;2053970;28;20027;-49
2024/02/15 02:46:16;;;;;;;6.85;3.35;;;;;;;;;;2060577;28;20022;-49
2024/02/15 02:47:17;;;;;;;5.40;3.20;;;;;;;;;;2060384;28;20088;-49
2024/02/15 02:48:19;;;;;;;4.95;3.20;;;;;;;;;;2057841;28;20053;-49
2024/02/15 02:49:20;;;;;;;4.88;3.13;;;;;;;;;;2056567;28;20122;-49
2024/02/15 02:50:22;;;;;;;6.38;2.85;;;;;;;;;;2057847;28;20105;-50
2024/02/15 02:51:23;;;;;;;5.68;3.17;;;;;;;;;;2057650;28;20027;-47
2024/02/15 02:52:25;;;;;;;3.95;2.70;;;;;;;;;;2058615;28;20006;-47
2024/02/15 02:53:26;;;;;;;4.47;3.20;;;;;;;;;;2060396;28;20477;-48
2024/02/15 02:54:29;;;;;;;6.35;2.80;;;;;;;;;;2057308;28;20015;-47
2024/02/15 02:55:30;;;;;;;4.95;2.75;;;;;;;;;;2059185;28;20086;-48
2024/02/15 02:56:32;;;;;;;4.95;3.10;;;;;;;;;;2058854;28;20077;-49
2024/02/15 02:57:33;;;;;;;6.30;2.90;;;;;;;;;;2057924;28;20047;-49
2024/02/15 02:58:34;;;;;;;4.22;2.80;;;;;;;;;;2054493;28;20478;-48
2024/02/15 02:59:36;;;;;;;10.27;3.17;;;;;;;;;;2061686;28;20481;-48
2024/02/15 03:00:39;;;;;;;6.13;3.15;;;;;;;;;;2062519;28;20020;-49
2024/02/15 03:01:40;;;;;;;7.18;3.45;;;;;;;;;;2055144;28;20097;-49
2024/02/15 03:02:43;;;;;;;5.18;2.97;;;;;;;;;;2059392;28;20010;-47
2024/02/15 03:03:44;;;;;;;4.90;2.88;;;;;;;;;;2060931;28;20101;-47
2024/02/15 03:04:46;;;;;;;5.00;3.28;;;;;;;;;;2054082;28;20117;-49
2024/02/15 03:05:48;;;;;;;6.97;3.35;;;;;;;;;;2057238;28;20106;-48
2024/02/15 03:06:49;;;;;;;5.78;3.53;;;;;;;;;;2055032;28;20110;-49
2024/02/15 03:07:51;;;;;;;5.80;3.13;;;;;;;;;;2056758;28;20034;-48
2024/02/15 03:08:55;;;;;;;6.85;3.20;;;;;;;;;;2057917;28;20030;-48
2024/02/15 03:09:56;;;;;;;3.72;2.85;;;;;;;;;;2060361;28;20030;-47
2024/02/15 03:10:58;;;;;;;6.60;3.60;;;;;;;;;;2062251;28;20370;-48
2024/02/15 03:12:01;;;;;;;4.57;3.05;;;;;;;;;;2062089;28;20545;-49
2024/02/15 03:13:04;;;;;;;5.03;3.03;;;;;;;;;;2056318;28;20125;-49
2024/02/15 03:14:06;;;;;;;5.55;3.03;;;;;;;;;;2060712;28;20036;-49
2024/02/15 03:15:11;;;;;;;6.70;3.85;;;;;;;;;;2059038;28;20116;-48
2024/02/15 03:16:12;;;;;;;5.88;3.28;;;;;;;;;;2057459;28;20509;-48
2024/02/15 03:17:14;;;;;;;5.03;3.28;;;;;;;;;;2057138;28;20074;-47
2024/02/15 03:18:16;;;;;;;5.95;3.38;;;;;;;;;;2057452;28;20520;-48
2024/02/15 03:19:17;;;;;;;5.43;2.90;;;;;;;;;;2058037;28;20035;-47
2024/02/15 03:20:21;;;;;;;6.90;3.22;;;;;;;;;;2058031;28;20030;-47
2024/02/15 03:21:22;;;;;;;6.80;3.65;;;;;;;;;;2055950;28;20046;-47
2024/02/15 03:22:25;;;;;;;5.93;3.50;;;;;;;;;;2060840;28;20022;-47
2024/02/15 03:23:26;;;;;;;6.10;3.30;;;;;;;;;;2061017;28;20500;-47
2024/02/15 03:24:27;;;;;;;6.60;3.28;;;;;;;;;;2056915;28;20034;-48
2024/02/15 03:25:29;;;;;;;4.00;3.00;;;;;;;;;;2060566;28;20025;-49
2024/02/15 03:26:36;;;;;;;7.28;3.25;;;;;;;;;;2057351;28;20026;-48
2024/02/15 03:27:38;;;;;;;6.05;3.45;;;;;;;;;;2054262;28;20026;-47
2024/02/15 03:28:39;;;;;;;4.30;2.95;;;;;;;;;;2064295;28;20024;-47
2024/02/15 03:29:41;;;;;;;7.28;3.95;;;;;;;;;;2056333;28;20014;-50
2024/02/15 03:30:43;;;;;;;4.47;3.22;;;;;;;;;;2057993;28;20015;-49
2024/02/15 03:31:44;;;;;;;7.13;3.67;;;;;;;;;;2048071;28;20154;-51
2024/02/15 03:32:48;;;;;;;6.32;3.42;;;;;;;;;;2054696;28;20058;-50
2024/02/15 03:33:49;;;;;;;5.45;3.33;;;;;;;;;;2060301;28;20509;-50
2024/02/15 03:34:51;;;;;;;5.03;3.15;;;;;;;;;;2057235;28;20027;-56
2024/02/15 03:35:52;;;;;;;5.50;2.88;;;;;;;;;;2060672;28;20039;-54
2024/02/15 03:36:54;;;;;;;4.88;3.38;;;;;;;;;;2058104;28;20073;-54
2024/02/15 03:37:56;;;;;;;6.65;3.65;;;;;;;;;;2057093;28;20123;-50
2024/02/15 03:38:57;;;;;;;5.63;3.30;;;;;;;;;;2057407;28;20560;-52
2024/02/15 03:39:58;;;;;;;5.82;3.42;;;;;;;;;;2056049;28;20169;-52
2024/02/15 03:40:59;;;;;;;6.88;3.28;;;;;;;;;;2057545;28;20022;-54
2024/02/15 03:42:01;;;;;;;8.57;3.47;;;;;;;;;;2057293;28;20485;-53
2024/02/15 03:43:06;;;;;;;4.78;3.03;;;;;;;;;;2056853;28;20387;-53
2024/02/15 03:44:08;;;;;;;6.80;3.20;;;;;;;;;;2059405;28;20045;-54
2024/02/15 03:45:10;;;;;;;7.28;3.45;;;;;;;;;;2057693;28;20015;-50
2024/02/15 03:46:13;;;;;;;6.78;3.55;;;;;;;;;;2059438;28;20026;-48
2024/02/15 03:47:15;;;;;;;9.38;3.95;;;;;;;;;;2059940;28;20492;-56
2024/02/15 03:48:18;;;;;;;6.32;3.47;;;;;;;;;;2056663;28;20031;-54
2024/02/15 03:49:19;;;;;;;6.00;3.40;;;;;;;;;;2061138;28;20374;-54
2024/02/15 03:50:23;;;;;;;6.93;3.63;;;;;;;;;;2058419;28;20030;-54
2024/02/15 03:51:25;;;;;;;5.60;3.33;;;;;;;;;;2058555;28;20506;-54
2024/02/15 03:52:26;;;;;;;6.82;3.50;;;;;;;;;;2056245;28;20069;-49
2024/02/15 03:53:30;;;;;;;5.00;2.95;;;;;;;;;;2059030;28;20136;-49
2024/02/15 03:54:31;;;;;;;5.30;3.30;;;;;;;;;;2057474;28;20030;-48
2024/02/15 03:55:33;;;;;;;7.63;3.50;;;;;;;;;;2059311;28;20202;-48
2024/02/15 03:56:34;;;;;;;4.10;2.92;;;;;;;;;;2059597;28;20085;-48
2024/02/15 03:57:38;;;;;;;5.95;3.38;;;;;;;;;;2058197;28;20108;-49
2024/02/15 03:58:39;;;;;;;4.97;3.05;;;;;;;;;;2058527;28;20023;-49
2024/02/15 03:59:41;;;;;;;5.95;2.95;;;;;;;;;;2057207;28;20015;-48
2024/02/15 04:00:42;;;;;;;4.18;2.97;;;;;;;;;;2060480;28;20029;-48
2024/02/15 04:01:43;;;;;;;5.55;3.25;;;;;;;;;;2055898;28;20027;-50
2024/02/15 04:02:45;;;;;;;5.07;2.80;;;;;;;;;;2057264;28;20034;-49
2024/02/15 04:03:47;;;;;;;5.10;3.38;;;;;;;;;;2062300;28;20458;-49
2024/02/15 04:04:49;;;;;;;6.22;2.80;;;;;;;;;;2057557;28;20035;-49
2024/02/15 04:05:51;;;;;;;6.07;2.85;;;;;;;;;;2048526;28;20062;-49
2024/02/15 04:06:53;;;;;;;5.75;3.08;;;;;;;;;;2056611;28;20023;-48
2024/02/15 04:07:54;;;;;;;4.57;2.67;;;;;;;;;;2061397;28;20035;-48
2024/02/15 04:08:55;;;;;;;5.68;2.88;;;;;;;;;;2057539;28;20031;-49
2024/02/15 04:09:56;;;;;;;4.90;2.60;;;;;;;;;;2059023;28;20041;-47
2024/02/15 04:10:58;;;;;;;5.95;3.10;;;;;;;;;;2060100;28;20073;-48
2024/02/15 04:11:59;;;;;;;5.03;2.80;;;;;;;;;;2059760;28;20062;-48
2024/02/15 04:13:03;;;;;;;4.75;2.80;;;;;;;;;;2060914;28;20406;-51
2024/02/15 04:14:05;;;;;;;5.18;2.70;;;;;;;;;;2061665;28;20039;-49
2024/02/15 04:15:11;;;;;;;6.13;3.25;;;;;;;;;;2054438;28;20062;-50
2024/02/15 04:16:13;;;;;;;3.80;2.97;;;;;;;;;;2057286;28;20034;-49
2024/02/15 04:17:21;;;;;;;4.43;2.65;;;;;;;;;;2061053;28;20019;-48
2024/02/15 04:18:22;;;;;;;7.38;2.75;;;;;;;;;;2059178;28;20443;-55
2024/02/15 04:19:24;;;;;;;4.18;2.92;;;;;;;;;;2058067;28;20101;-56
2024/02/15 04:20:26;;;;;;;4.63;2.83;;;;;;;;;;2054697;28;20035;-52
2024/02/15 04:21:27;;;;;;;5.25;2.72;;;;;;;;;;2059886;28;20026;-54
2024/02/15 04:22:28;;;;;;;4.47;2.70;;;;;;;;;;2058018;28;20034;-52
2024/02/15 04:23:30;;;;;;;4.55;2.60;;;;;;;;;;2062473;28;20064;-55
2024/02/15 04:24:31;;;;;;;5.53;2.85;;;;;;;;;;2061267;28;20034;-55
2024/02/15 04:25:33;;;;;;;6.82;2.90;;;;;;;;;;2057934;28;20437;-54
2024/02/15 04:26:37;;;;;;;6.00;2.67;;;;;;;;;;2057519;28;20029;-55
2024/02/15 04:27:38;;;;;;;5.45;3.10;;;;;;;;;;2058924;28;20413;-54
2024/02/15 04:28:41;;;;;;;6.65;3.05;;;;;;;;;;2060370;28;20106;-54
2024/02/15 04:29:44;;;;;;;5.53;3.08;;;;;;;;;;2063717;28;20125;-55
2024/02/15 04:30:46;;;;;;;4.25;2.80;;;;;;;;;;2059470;28;20551;-54
2024/02/15 04:31:51;;;;;;;7.72;3.75;;;;;;;;;;2058639;28;20494;-54
2024/02/15 04:32:52;;;;;;;5.82;2.80;;;;;;;;;;2063108;28;20027;-54
2024/02/15 04:33:54;;;;;;;4.13;2.60;;;;;;;;;;2059182;28;20039;-57
2024/02/15 04:34:55;;;;;;;5.57;2.95;;;;;;;;;;2061218;28;20466;-57
2024/02/15 04:36:00;;;;;;;4.45;2.70;;;;;;;;;;2059960;28;20023;-53
2024/02/15 04:37:06;;;;;;;4.95;2.97;;;;;;;;;;2061660;28;20034;-55
2024/02/15 04:38:08;;;;;;;5.13;3.05;;;;;;;;;;2059548;28;20030;-56
2024/02/15 04:39:12;;;;;;;5.65;3.20;;;;;;;;;;2063613;28;20038;-53
2024/02/15 04:40:13;;;;;;;6.30;3.20;;;;;;;;;;2059558;28;20027;-53
2024/02/15 04:41:14;;;;;;;5.28;2.97;;;;;;;;;;2060000;28;20118;-53
2024/02/15 04:42:18;;;;;;;3.95;2.63;;;;;;;;;;2061334;28;20038;-54
2024/02/15 04:43:19;;;;;;;6.78;3.10;;;;;;;;;;2061614;28;20413;-54
2024/02/15 04:44:20;;;;;;;5.22;3.08;;;;;;;;;;2059947;28;20023;-55
2024/02/15 04:45:23;;;;;;;6.57;3.22;;;;;;;;;;2061981;28;20042;-49
2024/02/15 04:46:24;;;;;;;4.00;2.80;;;;;;;;;;2055459;28;20030;-51
2024/02/15 04:47:25;;;;;;;5.32;2.85;;;;;;;;;;2064836;28;20018;-49
2024/02/15 04:48:27;;;;;;;6.78;3.00;;;;;;;;;;2052880;28;20058;-49
2024/02/15 04:49:28;;;;;;;4.53;2.60;;;;;;;;;;2062777;28;20062;-49
2024/02/15 04:50:30;;;;;;;5.35;2.80;;;;;;;;;;2064173;28;20029;-49
2024/02/15 04:51:31;;;;;;;4.63;2.70;;;;;;;;;;2060382;28;20053;-49
2024/02/15 04:52:33;;;;;;;5.80;3.05;;;;;;;;;;2063062;28;20011;-48
2024/02/15 04:53:36;;;;;;;4.30;2.58;;;;;;;;;;2060223;28;20064;-49
2024/02/15 04:54:37;;;;;;;3.60;2.70;;;;;;;;;;2060137;28;20518;-48
2024/02/15 04:55:39;;;;;;;3.95;2.40;;;;;;;;;;2055209;28;20383;-48
2024/02/15 04:56:40;;;;;;;4.90;2.63;;;;;;;;;;2058440;28;20046;-48
2024/02/15 04:57:42;;;;;;;4.82;3.05;;;;;;;;;;2061013;28;20389;-49
2024/02/15 04:58:47;;;;;;;5.80;3.00;;;;;;;;;;2061282;28;20018;-50
2024/02/15 04:59:49;;;;;;;6.95;2.90;;;;;;;;;;2059295;28;20041;-51
2024/02/15 05:00:54;;;;;;;4.95;2.75;;;;;;;;;;2057488;28;20030;-49
2024/02/15 05:01:59;;;;;;;3.03;2.25;;;;;;;;;;2058920;28;20019;-49
2024/02/15 05:03:00;;;;;;;5.15;2.90;;;;;;;;;;2058783;28;20027;-50
2024/02/15 05:04:06;;;;;;;3.70;2.97;;;;;;;;;;2057350;28;20030;-49
2024/02/15 05:05:08;;;;;;;4.03;2.83;;;;;;;;;;2050953;28;20032;-50
2024/02/15 05:06:10;;;;;;;4.68;2.83;;;;;;;;;;2056145;28;20398;-50
2024/02/15 05:07:11;;;;;;;5.80;3.13;;;;;;;;;;2060179;28;20617;-49
2024/02/15 05:08:12;;;;;;;5.55;3.45;;;;;;;;;;2056596;28;20039;-49
2024/02/15 05:09:18;;;;;;;6.22;3.38;;;;;;;;;;2059328;28;20033;-50
2024/02/15 05:10:19;;;;;;;6.32;3.00;;;;;;;;;;2054247;28;20026;-49
2024/02/15 05:11:22;;;;;;;4.13;2.70;;;;;;;;;;2059331;28;20106;-49
2024/02/15 05:12:27;;;;;;;4.20;3.10;;;;;;;;;;2058100;28;20027;-49
2024/02/15 05:13:28;;;;;;;4.85;3.38;;;;;;;;;;2062156;28;20118;-49
2024/02/15 05:14:29;;;;;;;4.05;2.90;;;;;;;;;;2057554;28;20368;-50
2024/02/15 05:15:31;;;;;;;5.68;3.13;;;;;;;;;;2057975;28;20069;-49
2024/02/15 05:16:32;;;;;;;6.35;2.97;;;;;;;;;;2060263;28;20062;-50
2024/02/15 05:17:34;;;;;;;5.03;3.13;;;;;;;;;;2059342;28;20030;-49
2024/02/15 05:18:35;;;;;;;3.90;3.20;;;;;;;;;;2059367;28;20456;-48
2024/02/15 05:19:37;;;;;;;6.38;2.92;;;;;;;;;;2061322;28;20105;-48
2024/02/15 05:20:38;;;;;;;4.50;2.83;;;;;;;;;;2058567;28;20061;-48
2024/02/15 05:21:40;;;;;;;4.53;2.75;;;;;;;;;;2059175;28;20031;-48
2024/02/15 05:22:48;;;;;;;4.18;2.75;;;;;;;;;;2058229;28;20477;-49
2024/02/15 05:23:49;;;;;;;4.28;2.80;;;;;;;;;;2059846;28;20038;-49
2024/02/15 05:24:50;;;;;;;6.18;2.88;;;;;;;;;;2061458;28;20030;-48
2024/02/15 05:25:54;;;;;;;4.43;2.85;;;;;;;;;;2061363;28;20118;-47
2024/02/15 05:26:55;;;;;;;3.88;2.75;;;;;;;;;;2058882;28;20051;-50
2024/02/15 05:27:57;;;;;;;4.97;2.70;;;;;;;;;;2060334;28;20023;-49
2024/02/15 05:28:59;;;;;;;3.92;2.63;;;;;;;;;;2057908;28;20077;-48
2024/02/15 05:30:00;;;;;;;4.20;2.33;;;;;;;;;;2059494;28;20046;-49
2024/02/15 05:31:20;;;;;;;5.97;2.65;;;;;;;;;;2060631;28;20026;-49
2024/02/15 05:32:21;;;;;;;5.72;2.50;;;;;;;;;;2057477;28;20023;-49
2024/02/15 05:33:23;;;;;;;5.63;2.70;;;;;;;;;;2058517;28;20062;-49
2024/02/15 05:34:25;;;;;;;4.90;2.83;;;;;;;;;;2057426;28;20019;-48
2024/02/15 05:35:27;;;;;;;3.92;2.42;;;;;;;;;;2061478;28;20031;-49
2024/02/15 05:36:30;;;;;;;4.10;2.70;;;;;;;;;;2059553;28;20587;-50
2024/02/15 05:37:34;;;;;;;4.03;2.80;;;;;;;;;;2058575;28;20027;-49
2024/02/15 05:38:35;;;;;;;4.93;2.80;;;;;;;;;;2059779;28;20090;-49
2024/02/15 05:39:37;;;;;;;5.32;3.22;;;;;;;;;;2057218;28;20031;-49
2024/02/15 05:40:39;;;;;;;6.43;2.83;;;;;;;;;;2057757;28;20081;-50
2024/02/15 05:41:40;;;;;;;4.72;2.92;;;;;;;;;;2060917;28;20046;-50
2024/02/15 05:42:45;;;;;;;5.15;3.22;;;;;;;;;;2067047;28;20038;-48
2024/02/15 05:43:48;;;;;;;3.95;2.63;;;;;;;;;;2057609;28;20030;-48
2024/02/15 05:44:50;;;;;;;5.50;2.70;;;;;;;;;;2058881;28;20023;-49
2024/02/15 05:45:52;;;;;;;4.70;2.83;;;;;;;;;;2057101;28;20113;-48
2024/02/15 05:46:54;;;;;;;5.70;2.47;;;;;;;;;;2055742;28;20354;-48
2024/02/15 05:47:55;;;;;;;4.10;2.58;;;;;;;;;;2057983;28;20409;-50
2024/02/15 05:48:56;;;;;;;6.93;2.67;;;;;;;;;;2058807;28;20014;-50
2024/02/15 05:49:58;;;;;;;7.43;3.40;;;;;;;;;;2056985;28;20532;-50
2024/02/15 05:51:00;;;;;;;6.55;2.88;;;;;;;;;;2060853;28;20029;-50
2024/02/15 05:52:01;;;;;;;6.10;2.80;;;;;;;;;;2061337;28;20423;-49
2024/02/15 05:53:03;;;;;;;4.80;2.85;;;;;;;;;;2061010;28;20029;-48
2024/02/15 05:54:05;;;;;;;7.07;3.03;;;;;;;;;;2059245;28;20407;-48
2024/02/15 05:55:07;;;;;;;5.25;2.90;;;;;;;;;;2057976;28;20033;-50
2024/02/15 05:56:10;;;;;;;5.25;3.40;;;;;;;;;;2063382;28;20034;-49
2024/02/15 05:57:11;;;;;;;5.57;3.05;;;;;;;;;;2058681;28;20050;-49
2024/02/15 05:58:13;;;;;;;3.65;2.55;;;;;;;;;;2062461;28;20014;-49
2024/02/15 05:59:16;;;;;;;7.68;2.90;;;;;;;;;;2058087;28;20101;-49
2024/02/15 06:00:18;;;;;;;5.35;3.00;;;;;;;;;;2059515;28;20078;-49
2024/02/15 06:01:20;;;;;;;3.80;2.55;;;;;;;;;;2063935;28;20026;-49
2024/02/15 06:02:21;;;;;;;6.05;2.97;;;;;;;;;;2058300;28;20093;-49
2024/02/15 06:03:26;;;;;;;5.60;3.00;;;;;;;;;;2058043;28;20015;-49
2024/02/15 06:04:29;;;;;;;5.15;2.97;;;;;;;;;;2058319;28;20022;-49
2024/02/15 06:05:30;;;;;;;5.88;3.42;;;;;;;;;;2061394;28;20011;-49
2024/02/15 06:06:33;;;;;;;6.60;3.90;;;;;;;;;;2061698;28;20094;-49
2024/02/15 06:07:34;;;;;;;4.82;2.67;;;;;;;;;;2055803;28;20023;-49
2024/02/15 06:08:36;;;;;;;8.48;4.45;;;;;;;;;;2054224;28;20015;-49
2024/02/15 06:09:39;;;;;;;8.68;4.38;;;;;;;;;;2057329;28;20027;-47
2024/02/15 06:10:41;;;;;;;7.15;3.22;;;;;;;;;;2052866;28;20018;-49
2024/02/15 06:11:45;;;;;;;5.45;3.15;;;;;;;;;;2056612;28;20050;-49